Change the Weather History Date:

Thursday, October 11, 2012

  Actual Average (KMTC) Record (KMTC)
Temperature  
Mean Temperature 44 °F -  
Max Temperature 60 °F 60 °F 80 °F (1962)
Min Temperature 28 °F 42 °F 25 °F (1964)
Degree Days  
Heating Degree Days 21    
Moisture  
Dew Point 31 °F    
Average Humidity 63    
Maximum Humidity 93    
Minimum Humidity 31    
Precipitation  
Precipitation 0.00 in - - ()
Sea Level Pressure  
Sea Level Pressure 30.10 in    
Wind  
Wind Speed 6 mph (SW)    
Max Wind Speed 21 mph    
Max Gust Speed 31 mph    
Visibility 10 miles    
Events Rain    
Averages and records for this station are not official NWS values.
T = Trace of Precipitation, MM = Missing Value Source: NWS Daily Summary

Daily Weather History Graph

Daily Weather History Graph

Search for Another Location

Airport or City:

Trip Planner

Search our weather history database for the weather conditions in past years. The results will help you decide how hot, cold, wet, or windy it might be!

Date:

Astronomy

Oct. 11, 2012 Rise Set
Actual Time 7:39 AM EDT 6:53 PM EDT
Civil Twilight 7:10 AM EDT 7:21 PM EDT
Nautical Twilight 6:38 AM EDT 7:54 PM EDT
Astronomical Twilight 6:05 AM EDT 8:27 PM EDT
Moon 3:10 AM EDT (10/11) 4:34 PM EDT (10/11)
Length of Visible Light 12h 10m
Length of Day
11h 13m
Waning Crescent, 18% of the Moon is Illuminated
Oct 11
Waning Crescent
Oct 15
New
Oct 21
First Quarter
Oct 29
Full
Nov 6
Last Quarter

Hourly Weather History & Observations

Time (EDT) Temp. Windchill Dew Point Humidity Pressure Visibility Wind Dir Wind Speed Gust Speed Precip Events Conditions
12:16 AM 32.0 °F 27.5 °F 24.8 °F 75% 30.15 in 10.0 mi SW 4.6 mph - N/A   Clear
12:36 AM 33.8 °F - 24.8 °F 70% 30.15 in 10.0 mi Calm Calm - N/A   Clear
12:56 AM 32.0 °F - 24.8 °F 75% 30.15 in 10.0 mi Calm Calm - N/A   Clear
1:16 AM 32.0 °F 28.7 °F 26.6 °F 80% 30.15 in 10.0 mi SW 3.5 mph - N/A   Clear
1:36 AM 32.0 °F - 26.6 °F 80% 30.15 in 10.0 mi Calm Calm - N/A   Clear
1:56 AM 30.2 °F 26.7 °F 26.6 °F 86% 30.15 in 10.0 mi WSW 3.5 mph - N/A   Clear
2:16 AM 30.2 °F - 26.6 °F 86% 30.15 in 10.0 mi Calm Calm - N/A   Clear
2:36 AM 32.0 °F 28.7 °F 26.6 °F 80% 30.16 in 10.0 mi SW 3.5 mph - N/A   Clear
2:56 AM 30.2 °F 26.7 °F 26.6 °F 86% 30.16 in 10.0 mi SW 3.5 mph - N/A   Clear
3:16 AM 32.0 °F - 26.6 °F 80% 30.16 in 10.0 mi Calm Calm - N/A   Clear
3:36 AM 32.0 °F 28.7 °F 26.6 °F 80% 30.16 in 10.0 mi SW 3.5 mph - N/A   Clear
3:56 AM 30.2 °F - 26.6 °F 86% 30.16 in 10.0 mi Calm Calm - N/A   Clear
4:16 AM 30.2 °F - 26.6 °F 86% 30.16 in 10.0 mi Calm Calm - N/A   Clear
4:36 AM 30.2 °F 26.7 °F 26.6 °F 86% 30.17 in 10.0 mi SW 3.5 mph - N/A   Clear
4:56 AM 30.2 °F 26.7 °F 26.6 °F 86% 30.16 in 10.0 mi SW 3.5 mph - N/A   Clear
5:16 AM 30.2 °F 26.7 °F 26.6 °F 86% 30.16 in 10.0 mi SW 3.5 mph - N/A   Clear
5:36 AM 30.2 °F 26.7 °F 26.6 °F 86% 30.16 in 10.0 mi SSW 3.5 mph - N/A   Clear
5:56 AM 30.2 °F 26.7 °F 26.6 °F 86% 30.16 in 10.0 mi SSW 3.5 mph - N/A   Clear
6:16 AM 30.2 °F 26.7 °F 26.6 °F 86% 30.16 in 10.0 mi SW 3.5 mph - N/A   Clear
6:36 AM 30.2 °F - 28.4 °F 93% 30.17 in 10.0 mi Calm Calm - N/A   Clear
6:56 AM 28.4 °F 24.6 °F 26.6 °F 93% 30.17 in 10.0 mi SSW 3.5 mph - N/A   Clear
7:16 AM 30.2 °F - 28.4 °F 93% 30.17 in 10.0 mi Calm Calm - N/A   Clear
7:36 AM 28.4 °F - 26.6 °F 93% 30.17 in 10.0 mi Calm Calm - N/A   Clear
7:56 AM 28.4 °F 24.6 °F 26.6 °F 93% 30.16 in 10.0 mi SSW 3.5 mph - N/A   Clear
8:16 AM 32.0 °F 27.5 °F 28.4 °F 87% 30.16 in 10.0 mi SSW 4.6 mph - N/A   Scattered Clouds
8:36 AM 33.8 °F 29.6 °F 30.2 °F 87% 30.16 in 10.0 mi SSW 4.6 mph - N/A   Mostly Cloudy
8:56 AM 35.6 °F 30.7 °F 30.2 °F 81% 30.17 in 10.0 mi SSW 5.8 mph - N/A   Scattered Clouds
9:16 AM 39.2 °F 35.9 °F 32.0 °F 75% 30.16 in 10.0 mi SSW 4.6 mph - N/A   Scattered Clouds
9:36 AM 41.0 °F 35.8 °F 33.8 °F 76% 30.15 in 10.0 mi South 8.1 mph - N/A   Mostly Cloudy
9:56 AM 42.8 °F 37.5 °F 33.8 °F 70% 30.16 in 10.0 mi SSW 9.2 mph - N/A   Mostly Cloudy
10:16 AM 46.4 °F 41.5 °F 33.8 °F 62% 30.15 in 10.0 mi SSW 10.4 mph 16.1 mph N/A   Scattered Clouds
10:36 AM 48.2 °F - 32.0 °F 54% 30.14 in 10.0 mi SW 10.4 mph 21.9 mph N/A   Clear
10:56 AM 50.0 °F - 32.0 °F 50% 30.12 in 10.0 mi SSW 16.1 mph 24.2 mph N/A   Mostly Cloudy
11:16 AM 50.0 °F - 30.2 °F 47% 30.13 in 10.0 mi SW 13.8 mph 20.7 mph N/A   Scattered Clouds
11:36 AM 51.8 °F - 30.2 °F 44% 30.11 in 10.0 mi SSW 16.1 mph 27.6 mph N/A   Clear
11:56 AM 51.8 °F - 30.2 °F 44% 30.09 in 10.0 mi SW 15.0 mph 26.5 mph N/A   Clear
12:16 PM 53.6 °F - 28.4 °F 38% 30.09 in 10.0 mi SW 15.0 mph 27.6 mph N/A   Clear
12:36 PM 53.6 °F - 28.4 °F 38% 30.08 in 10.0 mi SSW 11.5 mph 23.0 mph N/A   Clear
12:56 PM 55.4 °F - 30.2 °F 38% 30.07 in 10.0 mi SSW 17.3 mph 25.3 mph N/A   Clear
1:16 PM 55.4 °F - 30.2 °F 38% 30.04 in 10.0 mi SSW 18.4 mph 31.1 mph N/A   Scattered Clouds
1:36 PM 55.4 °F - 30.2 °F 38% 30.03 in 10.0 mi SW 12.7 mph 24.2 mph N/A   Scattered Clouds
1:56 PM 57.2 °F - 30.2 °F 36% 30.02 in 10.0 mi SW 13.8 mph 25.3 mph N/A   Clear
2:16 PM 57.2 °F - 30.2 °F 36% 30.01 in 10.0 mi SW 15.0 mph 28.8 mph N/A   Clear
2:36 PM 57.2 °F - 30.2 °F 36% 30.00 in 10.0 mi SSW 19.6 mph 31.1 mph N/A   Clear
2:56 PM 59.0 °F - 30.2 °F 34% 29.99 in 10.0 mi SSW 18.4 mph 29.9 mph N/A   Clear
3:16 PM 59.0 °F - 30.2 °F 34% 29.99 in 10.0 mi SW 20.7 mph 29.9 mph N/A   Clear
3:36 PM 60.8 °F - 32.0 °F 34% 29.99 in 10.0 mi SSW 18.4 mph 29.9 mph N/A   Clear
3:56 PM 60.8 °F - 30.2 °F 31% 29.98 in 10.0 mi SSW 18.4 mph 28.8 mph N/A   Clear
4:16 PM 60.8 °F - 30.2 °F 31% 29.98 in 10.0 mi SW 13.8 mph 25.3 mph N/A   Clear
4:36 PM 60.8 °F - 30.2 °F 31% 29.98 in 10.0 mi SSW 13.8 mph 25.3 mph N/A   Clear
4:56 PM 60.8 °F - 30.2 °F 31% 29.98 in 10.0 mi SW 15.0 mph 25.3 mph N/A   Clear
5:16 PM 60.8 °F - 30.2 °F 31% 29.99 in 10.0 mi SSW 10.4 mph 19.6 mph N/A   Clear
5:36 PM 60.8 °F - 30.2 °F 31% 29.98 in 10.0 mi WSW 8.1 mph 16.1 mph N/A   Clear
5:56 PM 60.8 °F - 32.0 °F 34% 29.99 in 10.0 mi WSW 9.2 mph - N/A   Clear
6:16 PM 59.0 °F - 30.2 °F 34% 30.00 in 10.0 mi West 8.1 mph - N/A   Scattered Clouds
6:36 PM 59.0 °F - 32.0 °F 36% 30.01 in 10.0 mi WSW 8.1 mph - N/A   Mostly Cloudy
6:56 PM 59.0 °F - 32.0 °F 36% 30.00 in 10.0 mi SW 6.9 mph - N/A   Overcast
7:16 PM 59.0 °F - 32.0 °F 36% 30.00 in 10.0 mi SW 5.8 mph - N/A   Overcast
7:36 PM 53.6 °F - 41.0 °F 62% 30.03 in 10.0 mi NNW 9.2 mph 23.0 mph N/A   Overcast
7:56 PM 51.8 °F - 41.0 °F 67% 30.05 in 10.0 mi NW 9.2 mph 17.3 mph N/A   Overcast
8:16 PM 50.0 °F - 41.0 °F 71% 30.05 in 10.0 mi NW 12.7 mph - N/A   Overcast
8:36 PM 50.0 °F - 41.0 °F 71% 30.07 in 10.0 mi WNW 13.8 mph 18.4 mph N/A   Overcast
8:56 PM 50.0 °F - 39.2 °F 66% 30.08 in 10.0 mi WNW 12.7 mph 18.4 mph N/A   Overcast
9:16 PM 50.0 °F - 39.2 °F 66% 30.09 in 10.0 mi NW 11.5 mph - N/A   Overcast
9:36 PM 48.2 °F - 41.0 °F 76% 30.10 in 10.0 mi NNW 6.9 mph - N/A   Overcast
9:56 PM 48.2 °F - 41.0 °F 76% 30.11 in 10.0 mi NW 8.1 mph - N/A   Overcast
10:16 PM 46.4 °F 42.4 °F 39.2 °F 76% 30.12 in 10.0 mi NW 8.1 mph 19.6 mph N/A   Overcast
10:36 PM 46.4 °F 40.4 °F 37.4 °F 71% 30.12 in 10.0 mi NNW 13.8 mph 18.4 mph N/A   Overcast
10:56 PM 44.6 °F 39.7 °F 37.4 °F 76% 30.14 in 10.0 mi NNW 9.2 mph - N/A   Overcast
11:36 PM 42.8 °F 37.5 °F 35.6 °F 76% 30.16 in 10.0 mi NW 9.2 mph - N/A Rain Light Rain
11:56 PM 42.8 °F 38.6 °F 35.6 °F 76% 30.16 in 10.0 mi NW 6.9 mph - N/A   Light Drizzle